sensor_id;sensor_type;location;lat;lon;timestamp;P1;P2;P0
77892;PMS5003;67087;50.094;14.338;2023-08-12T00:00:48;9;9;
77892;PMS5003;67087;50.094;14.338;2023-08-12T00:03:14;10;10;
77892;PMS5003;67087;50.094;14.338;2023-08-12T00:05:39;8;8;
77892;PMS5003;67087;50.094;14.338;2023-08-12T00:08:04;10;10;
77892;PMS5003;67087;50.094;14.338;2023-08-12T00:10:30;8;8;
77892;PMS5003;67087;50.094;14.338;2023-08-12T00:12:54;9;8;
77892;PMS5003;67087;50.094;14.338;2023-08-12T00:15:19;9;9;
77892;PMS5003;67087;50.094;14.338;2023-08-12T00:17:44;8;8;
77892;PMS5003;67087;50.094;14.338;2023-08-12T00:20:10;9;9;
77892;PMS5003;67087;50.094;14.338;2023-08-12T00:22:35;10;10;
77892;PMS5003;67087;50.094;14.338;2023-08-12T00:25:00;9;9;
77892;PMS5003;67087;50.094;14.338;2023-08-12T00:27:25;9;8;
77892;PMS5003;67087;50.094;14.338;2023-08-12T00:29:50;9;9;
77892;PMS5003;67087;50.094;14.338;2023-08-12T00:32:15;8;7;
77892;PMS5003;67087;50.094;14.338;2023-08-12T00:34:40;9;9;
77892;PMS5003;67087;50.094;14.338;2023-08-12T00:37:05;10;8;
77892;PMS5003;67087;50.094;14.338;2023-08-12T00:39:30;8;8;
77892;PMS5003;67087;50.094;14.338;2023-08-12T00:41:55;8;8;
77892;PMS5003;67087;50.094;14.338;2023-08-12T00:44:21;9;9;
77892;PMS5003;67087;50.094;14.338;2023-08-12T00:46:46;6;6;
77892;PMS5003;67087;50.094;14.338;2023-08-12T00:49:11;9;9;
77892;PMS5003;67087;50.094;14.338;2023-08-12T00:51:36;9;9;
77892;PMS5003;67087;50.094;14.338;2023-08-12T00:54:01;5;5;
77892;PMS5003;67087;50.094;14.338;2023-08-12T00:56:26;9;9;
77892;PMS5003;67087;50.094;14.338;2023-08-12T00:58:51;9;9;
77892;PMS5003;67087;50.094;14.338;2023-08-12T01:01:17;8;8;
77892;PMS5003;67087;50.094;14.338;2023-08-12T01:03:41;9;8;
77892;PMS5003;67087;50.094;14.338;2023-08-12T01:06:07;10;10;
77892;PMS5003;67087;50.094;14.338;2023-08-12T01:08:32;8;8;
77892;PMS5003;67087;50.094;14.338;2023-08-12T01:10:58;8;7;
77892;PMS5003;67087;50.094;14.338;2023-08-12T01:13:25;7;6;
77892;PMS5003;67087;50.094;14.338;2023-08-12T01:15:47;10;10;
77892;PMS5003;67087;50.094;14.338;2023-08-12T01:18:12;8;8;
77892;PMS5003;67087;50.094;14.338;2023-08-12T01:20:37;8;8;
77892;PMS5003;67087;50.094;14.338;2023-08-12T01:23:08;8;8;
77892;PMS5003;67087;50.094;14.338;2023-08-12T01:25:27;9;9;
77892;PMS5003;67087;50.094;14.338;2023-08-12T01:27:52;8;7;
77892;PMS5003;67087;50.094;14.338;2023-08-12T01:30:17;9;9;
77892;PMS5003;67087;50.094;14.338;2023-08-12T01:32:43;7;7;
77892;PMS5003;67087;50.094;14.338;2023-08-12T01:35:09;7;7;
77892;PMS5003;67087;50.094;14.338;2023-08-12T01:37:32;8;8;
77892;PMS5003;67087;50.094;14.338;2023-08-12T01:39:58;8;8;
77892;PMS5003;67087;50.094;14.338;2023-08-12T01:42:23;8;8;
77892;PMS5003;67087;50.094;14.338;2023-08-12T01:44:48;10;9;
77892;PMS5003;67087;50.094;14.338;2023-08-12T01:47:12;7;7;
77892;PMS5003;67087;50.094;14.338;2023-08-12T01:49:37;8;8;
77892;PMS5003;67087;50.094;14.338;2023-08-12T01:52:03;8;7;
77892;PMS5003;67087;50.094;14.338;2023-08-12T01:54:28;8;8;
77892;PMS5003;67087;50.094;14.338;2023-08-12T01:56:53;7;7;
77892;PMS5003;67087;50.094;14.338;2023-08-12T01:59:18;9;8;
77892;PMS5003;67087;50.094;14.338;2023-08-12T02:01:43;8;7;
77892;PMS5003;67087;50.094;14.338;2023-08-12T02:04:08;7;7;
77892;PMS5003;67087;50.094;14.338;2023-08-12T02:06:33;7;7;
77892;PMS5003;67087;50.094;14.338;2023-08-12T02:08:58;7;7;
77892;PMS5003;67087;50.094;14.338;2023-08-12T02:11:23;7;6;
77892;PMS5003;67087;50.094;14.338;2023-08-12T02:13:48;8;8;
77892;PMS5003;67087;50.094;14.338;2023-08-12T02:16:13;8;7;
77892;PMS5003;67087;50.094;14.338;2023-08-12T02:18:38;8;8;
77892;PMS5003;67087;50.094;14.338;2023-08-12T02:21:03;7;7;
77892;PMS5003;67087;50.094;14.338;2023-08-12T02:23:28;10;9;
77892;PMS5003;67087;50.094;14.338;2023-08-12T02:25:53;8;7;
77892;PMS5003;67087;50.094;14.338;2023-08-12T02:28:18;6;6;
77892;PMS5003;67087;50.094;14.338;2023-08-12T02:30:43;8;8;
77892;PMS5003;67087;50.094;14.338;2023-08-12T02:33:09;7;7;
77892;PMS5003;67087;50.094;14.338;2023-08-12T02:35:34;5;5;
77892;PMS5003;67087;50.094;14.338;2023-08-12T02:37:59;7;6;
77892;PMS5003;67087;50.094;14.338;2023-08-12T02:40:24;7;7;
77892;PMS5003;67087;50.094;14.338;2023-08-12T02:42:49;6;6;
77892;PMS5003;67087;50.094;14.338;2023-08-12T02:45:14;8;8;
77892;PMS5003;67087;50.094;14.338;2023-08-12T02:47:39;7;7;
77892;PMS5003;67087;50.094;14.338;2023-08-12T02:50:04;7;7;
77892;PMS5003;67087;50.094;14.338;2023-08-12T02:52:29;6;6;
77892;PMS5003;67087;50.094;14.338;2023-08-12T02:54:54;6;5;
77892;PMS5003;67087;50.094;14.338;2023-08-12T02:57:19;7;7;
77892;PMS5003;67087;50.094;14.338;2023-08-12T02:59:44;8;7;
77892;PMS5003;67087;50.094;14.338;2023-08-12T03:02:09;7;7;
77892;PMS5003;67087;50.094;14.338;2023-08-12T03:04:34;6;6;
77892;PMS5003;67087;50.094;14.338;2023-08-12T03:06:59;8;7;
77892;PMS5003;67087;50.094;14.338;2023-08-12T03:09:24;6;6;
77892;PMS5003;67087;50.094;14.338;2023-08-12T03:11:49;7;7;
77892;PMS5003;67087;50.094;14.338;2023-08-12T03:14:14;5;5;
77892;PMS5003;67087;50.094;14.338;2023-08-12T03:16:40;6;6;
77892;PMS5003;67087;50.094;14.338;2023-08-12T03:19:05;7;7;
77892;PMS5003;67087;50.094;14.338;2023-08-12T03:21:30;9;8;
77892;PMS5003;67087;50.094;14.338;2023-08-12T03:23:56;7;6;
77892;PMS5003;67087;50.094;14.338;2023-08-12T03:26:20;6;6;
77892;PMS5003;67087;50.094;14.338;2023-08-12T03:28:45;7;7;
77892;PMS5003;67087;50.094;14.338;2023-08-12T03:31:10;7;7;
77892;PMS5003;67087;50.094;14.338;2023-08-12T03:33:35;6;6;
77892;PMS5003;67087;50.094;14.338;2023-08-12T03:36:00;7;7;
77892;PMS5003;67087;50.094;14.338;2023-08-12T03:38:25;6;6;
77892;PMS5003;67087;50.094;14.338;2023-08-12T03:40:50;5;5;
77892;PMS5003;67087;50.094;14.338;2023-08-12T03:43:16;5;5;
77892;PMS5003;67087;50.094;14.338;2023-08-12T03:45:41;5;5;
77892;PMS5003;67087;50.094;14.338;2023-08-12T03:48:06;8;8;
77892;PMS5003;67087;50.094;14.338;2023-08-12T03:50:32;7;7;
77892;PMS5003;67087;50.094;14.338;2023-08-12T03:52:56;5;5;
77892;PMS5003;67087;50.094;14.338;2023-08-12T03:55:21;5;5;
77892;PMS5003;67087;50.094;14.338;2023-08-12T03:57:46;7;7;
77892;PMS5003;67087;50.094;14.338;2023-08-12T04:00:11;7;7;
77892;PMS5003;67087;50.094;14.338;2023-08-12T04:02:36;6;6;
77892;PMS5003;67087;50.094;14.338;2023-08-12T04:05:01;6;6;
77892;PMS5003;67087;50.094;14.338;2023-08-12T04:07:26;6;6;
77892;PMS5003;67087;50.094;14.338;2023-08-12T04:09:51;4;4;
77892;PMS5003;67087;50.094;14.338;2023-08-12T04:12:16;7;7;
77892;PMS5003;67087;50.094;14.338;2023-08-12T04:14:41;6;6;
77892;PMS5003;67087;50.094;14.338;2023-08-12T04:17:07;6;6;
77892;PMS5003;67087;50.094;14.338;2023-08-12T04:19:31;10;8;
77892;PMS5003;67087;50.094;14.338;2023-08-12T04:21:57;6;5;
77892;PMS5003;67087;50.094;14.338;2023-08-12T04:24:22;6;6;
77892;PMS5003;67087;50.094;14.338;2023-08-12T04:26:47;7;7;
77892;PMS5003;67087;50.094;14.338;2023-08-12T04:29:12;6;6;
77892;PMS5003;67087;50.094;14.338;2023-08-12T04:31:37;7;6;
77892;PMS5003;67087;50.094;14.338;2023-08-12T04:34:02;7;7;
77892;PMS5003;67087;50.094;14.338;2023-08-12T04:36:27;8;8;
77892;PMS5003;67087;50.094;14.338;2023-08-12T04:38:52;7;6;
77892;PMS5003;67087;50.094;14.338;2023-08-12T04:41:17;6;6;
77892;PMS5003;67087;50.094;14.338;2023-08-12T04:43:42;5;5;
77892;PMS5003;67087;50.094;14.338;2023-08-12T04:46:07;5;5;
77892;PMS5003;67087;50.094;14.338;2023-08-12T04:48:32;6;6;
77892;PMS5003;67087;50.094;14.338;2023-08-12T04:50:57;8;7;
77892;PMS5003;67087;50.094;14.338;2023-08-12T04:53:22;6;6;
77892;PMS5003;67087;50.094;14.338;2023-08-12T04:55:49;7;6;
77892;PMS5003;67087;50.094;14.338;2023-08-12T04:58:12;8;8;
77892;PMS5003;67087;50.094;14.338;2023-08-12T05:00:37;7;6;
77892;PMS5003;67087;50.094;14.338;2023-08-12T05:03:03;6;6;
77892;PMS5003;67087;50.094;14.338;2023-08-12T05:05:27;6;6;
77892;PMS5003;67087;50.094;14.338;2023-08-12T05:07:52;7;7;
77892;PMS5003;67087;50.094;14.338;2023-08-12T05:10:18;8;7;
77892;PMS5003;67087;50.094;14.338;2023-08-12T05:12:43;7;7;
77892;PMS5003;67087;50.094;14.338;2023-08-12T05:15:08;7;7;
77892;PMS5003;67087;50.094;14.338;2023-08-12T05:17:33;6;6;
77892;PMS5003;67087;50.094;14.338;2023-08-12T05:19:58;6;5;
77892;PMS5003;67087;50.094;14.338;2023-08-12T05:22:23;5;5;
77892;PMS5003;67087;50.094;14.338;2023-08-12T05:24:48;8;7;
77892;PMS5003;67087;50.094;14.338;2023-08-12T05:27:13;6;6;
77892;PMS5003;67087;50.094;14.338;2023-08-12T05:29:38;7;7;
77892;PMS5003;67087;50.094;14.338;2023-08-12T05:32:03;8;8;
77892;PMS5003;67087;50.094;14.338;2023-08-12T05:34:28;7;6;
77892;PMS5003;67087;50.094;14.338;2023-08-12T05:36:53;7;6;
77892;PMS5003;67087;50.094;14.338;2023-08-12T05:39:18;7;7;
77892;PMS5003;67087;50.094;14.338;2023-08-12T05:41:43;11;10;
77892;PMS5003;67087;50.094;14.338;2023-08-12T05:44:08;8;8;
77892;PMS5003;67087;50.094;14.338;2023-08-12T05:46:34;9;9;
77892;PMS5003;67087;50.094;14.338;2023-08-12T05:48:59;11;9;
77892;PMS5003;67087;50.094;14.338;2023-08-12T05:51:24;11;11;
77892;PMS5003;67087;50.094;14.338;2023-08-12T05:53:49;10;10;
77892;PMS5003;67087;50.094;14.338;2023-08-12T05:56:14;9;9;
77892;PMS5003;67087;50.094;14.338;2023-08-12T05:58:39;12;10;
77892;PMS5003;67087;50.094;14.338;2023-08-12T06:01:04;11;10;
77892;PMS5003;67087;50.094;14.338;2023-08-12T06:03:29;8;8;
77892;PMS5003;67087;50.094;14.338;2023-08-12T06:05:54;10;10;
77892;PMS5003;67087;50.094;14.338;2023-08-12T06:08:20;10;10;
77892;PMS5003;67087;50.094;14.338;2023-08-12T06:10:45;11;11;
77892;PMS5003;67087;50.094;14.338;2023-08-12T06:13:10;14;11;
77892;PMS5003;67087;50.094;14.338;2023-08-12T06:15:35;13;13;
77892;PMS5003;67087;50.094;14.338;2023-08-12T06:18:01;11;11;
77892;PMS5003;67087;50.094;14.338;2023-08-12T06:20:25;10;10;
77892;PMS5003;67087;50.094;14.338;2023-08-12T06:22:51;11;11;
77892;PMS5003;67087;50.094;14.338;2023-08-12T06:25:15;12;11;
77892;PMS5003;67087;50.094;14.338;2023-08-12T06:27:41;9;9;
77892;PMS5003;67087;50.094;14.338;2023-08-12T06:30:06;10;10;
77892;PMS5003;67087;50.094;14.338;2023-08-12T06:32:30;10;10;
77892;PMS5003;67087;50.094;14.338;2023-08-12T06:34:56;8;8;
77892;PMS5003;67087;50.094;14.338;2023-08-12T06:37:21;10;10;
77892;PMS5003;67087;50.094;14.338;2023-08-12T06:39:47;13;12;
77892;PMS5003;67087;50.094;14.338;2023-08-12T06:42:12;8;8;
77892;PMS5003;67087;50.094;14.338;2023-08-12T06:44:37;12;12;
77892;PMS5003;67087;50.094;14.338;2023-08-12T06:47:02;12;12;
77892;PMS5003;67087;50.094;14.338;2023-08-12T06:49:27;11;10;
77892;PMS5003;67087;50.094;14.338;2023-08-12T06:51:52;12;12;
77892;PMS5003;67087;50.094;14.338;2023-08-12T06:54:18;10;10;
77892;PMS5003;67087;50.094;14.338;2023-08-12T06:56:43;12;12;
77892;PMS5003;67087;50.094;14.338;2023-08-12T06:59:08;13;13;
77892;PMS5003;67087;50.094;14.338;2023-08-12T07:01:33;12;12;
77892;PMS5003;67087;50.094;14.338;2023-08-12T07:03:58;10;10;
77892;PMS5003;67087;50.094;14.338;2023-08-12T07:06:23;12;12;
77892;PMS5003;67087;50.094;14.338;2023-08-12T07:08:48;20;18;
77892;PMS5003;67087;50.094;14.338;2023-08-12T07:11:14;13;12;
77892;PMS5003;67087;50.094;14.338;2023-08-12T07:13:39;13;11;
77892;PMS5003;67087;50.094;14.338;2023-08-12T07:16:04;17;16;
77892;PMS5003;67087;50.094;14.338;2023-08-12T07:18:29;12;12;
77892;PMS5003;67087;50.094;14.338;2023-08-12T07:20:55;14;14;
77892;PMS5003;67087;50.094;14.338;2023-08-12T07:23:21;17;15;
77892;PMS5003;67087;50.094;14.338;2023-08-12T07:25:46;14;14;
77892;PMS5003;67087;50.094;14.338;2023-08-12T07:28:11;17;16;
77892;PMS5003;67087;50.094;14.338;2023-08-12T07:30:36;12;12;
77892;PMS5003;67087;50.094;14.338;2023-08-12T07:33:01;12;12;
77892;PMS5003;67087;50.094;14.338;2023-08-12T07:35:27;14;13;
77892;PMS5003;67087;50.094;14.338;2023-08-12T07:37:52;14;14;
77892;PMS5003;67087;50.094;14.338;2023-08-12T07:40:17;14;13;
77892;PMS5003;67087;50.094;14.338;2023-08-12T07:42:42;14;13;
77892;PMS5003;67087;50.094;14.338;2023-08-12T07:45:08;13;12;
77892;PMS5003;67087;50.094;14.338;2023-08-12T07:47:32;13;13;
77892;PMS5003;67087;50.094;14.338;2023-08-12T07:49:58;12;12;
77892;PMS5003;67087;50.094;14.338;2023-08-12T07:52:23;15;15;
77892;PMS5003;67087;50.094;14.338;2023-08-12T07:54:48;11;11;
77892;PMS5003;67087;50.094;14.338;2023-08-12T07:57:13;13;13;
77892;PMS5003;67087;50.094;14.338;2023-08-12T07:59:38;16;15;
77892;PMS5003;67087;50.094;14.338;2023-08-12T08:02:03;13;13;
77892;PMS5003;67087;50.094;14.338;2023-08-12T08:04:28;15;14;
77892;PMS5003;67087;50.094;14.338;2023-08-12T08:06:54;15;15;
77892;PMS5003;67087;50.094;14.338;2023-08-12T08:09:19;16;16;
77892;PMS5003;67087;50.094;14.338;2023-08-12T08:11:44;15;15;
77892;PMS5003;67087;50.094;14.338;2023-08-12T08:14:09;15;15;
77892;PMS5003;67087;50.094;14.338;2023-08-12T08:16:34;14;14;
77892;PMS5003;67087;50.094;14.338;2023-08-12T08:19:00;15;15;
77892;PMS5003;67087;50.094;14.338;2023-08-12T08:21:25;14;14;
77892;PMS5003;67087;50.094;14.338;2023-08-12T08:23:50;16;16;
77892;PMS5003;67087;50.094;14.338;2023-08-12T08:26:15;14;14;
77892;PMS5003;67087;50.094;14.338;2023-08-12T08:28:40;15;15;
77892;PMS5003;67087;50.094;14.338;2023-08-12T08:31:05;15;15;
77892;PMS5003;67087;50.094;14.338;2023-08-12T08:33:30;12;12;
77892;PMS5003;67087;50.094;14.338;2023-08-12T08:35:55;15;15;
77892;PMS5003;67087;50.094;14.338;2023-08-12T08:38:20;15;14;
77892;PMS5003;67087;50.094;14.338;2023-08-12T08:40:45;13;13;
77892;PMS5003;67087;50.094;14.338;2023-08-12T08:43:10;13;13;
77892;PMS5003;67087;50.094;14.338;2023-08-12T08:45:36;15;15;
77892;PMS5003;67087;50.094;14.338;2023-08-12T08:48:01;11;11;
77892;PMS5003;67087;50.094;14.338;2023-08-12T08:50:26;14;14;
77892;PMS5003;67087;50.094;14.338;2023-08-12T08:52:52;14;14;
77892;PMS5003;67087;50.094;14.338;2023-08-12T08:55:17;13;13;
77892;PMS5003;67087;50.094;14.338;2023-08-12T08:57:42;13;12;
77892;PMS5003;67087;50.094;14.338;2023-08-12T09:00:07;13;12;
77892;PMS5003;67087;50.094;14.338;2023-08-12T09:02:32;11;11;
77892;PMS5003;67087;50.094;14.338;2023-08-12T09:04:57;13;13;
77892;PMS5003;67087;50.094;14.338;2023-08-12T09:07:23;14;14;
77892;PMS5003;67087;50.094;14.338;2023-08-12T09:09:48;11;11;
77892;PMS5003;67087;50.094;14.338;2023-08-12T09:12:14;12;12;
77892;PMS5003;67087;50.094;14.338;2023-08-12T09:14:39;10;10;
77892;PMS5003;67087;50.094;14.338;2023-08-12T09:17:04;9;9;
77892;PMS5003;67087;50.094;14.338;2023-08-12T09:19:29;11;11;
77892;PMS5003;67087;50.094;14.338;2023-08-12T09:21:54;14;14;
77892;PMS5003;67087;50.094;14.338;2023-08-12T09:24:23;13;13;
77892;PMS5003;67087;50.094;14.338;2023-08-12T09:26:44;14;14;
77892;PMS5003;67087;50.094;14.338;2023-08-12T09:29:09;12;11;
77892;PMS5003;67087;50.094;14.338;2023-08-12T09:31:34;12;12;
77892;PMS5003;67087;50.094;14.338;2023-08-12T09:34:00;14;13;
77892;PMS5003;67087;50.094;14.338;2023-08-12T09:36:27;10;10;
77892;PMS5003;67087;50.094;14.338;2023-08-12T09:38:49;12;12;
77892;PMS5003;67087;50.094;14.338;2023-08-12T09:41:15;12;12;
77892;PMS5003;67087;50.094;14.338;2023-08-12T09:43:40;10;10;
77892;PMS5003;67087;50.094;14.338;2023-08-12T09:46:04;12;11;
77892;PMS5003;67087;50.094;14.338;2023-08-12T09:48:29;10;10;
77892;PMS5003;67087;50.094;14.338;2023-08-12T09:50:54;9;9;
77892;PMS5003;67087;50.094;14.338;2023-08-12T09:53:21;11;11;
77892;PMS5003;67087;50.094;14.338;2023-08-12T09:55:45;10;10;
77892;PMS5003;67087;50.094;14.338;2023-08-12T09:58:10;11;11;
77892;PMS5003;67087;50.094;14.338;2023-08-12T10:00:35;11;10;
77892;PMS5003;67087;50.094;14.338;2023-08-12T10:03:00;9;9;
77892;PMS5003;67087;50.094;14.338;2023-08-12T10:05:27;9;9;
77892;PMS5003;67087;50.094;14.338;2023-08-12T10:07:50;11;10;
77892;PMS5003;67087;50.094;14.338;2023-08-12T10:10:15;9;9;
77892;PMS5003;67087;50.094;14.338;2023-08-12T10:12:40;10;10;
77892;PMS5003;67087;50.094;14.338;2023-08-12T10:15:05;8;8;
77892;PMS5003;67087;50.094;14.338;2023-08-12T10:17:30;9;9;
77892;PMS5003;67087;50.094;14.338;2023-08-12T10:19:55;9;9;
77892;PMS5003;67087;50.094;14.338;2023-08-12T10:22:20;9;7;
77892;PMS5003;67087;50.094;14.338;2023-08-12T10:24:45;8;8;
77892;PMS5003;67087;50.094;14.338;2023-08-12T10:27:10;9;9;
77892;PMS5003;67087;50.094;14.338;2023-08-12T10:29:35;11;11;
77892;PMS5003;67087;50.094;14.338;2023-08-12T10:32:01;8;8;
77892;PMS5003;67087;50.094;14.338;2023-08-12T10:34:25;10;10;
77892;PMS5003;67087;50.094;14.338;2023-08-12T10:36:53;8;8;
77892;PMS5003;67087;50.094;14.338;2023-08-12T10:39:15;8;8;
77892;PMS5003;67087;50.094;14.338;2023-08-12T10:44:06;8;8;
77892;PMS5003;67087;50.094;14.338;2023-08-12T10:46:31;8;8;
77892;PMS5003;67087;50.094;14.338;2023-08-12T10:48:56;8;8;
77892;PMS5003;67087;50.094;14.338;2023-08-12T10:53:46;9;9;
77892;PMS5003;67087;50.094;14.338;2023-08-12T10:56:11;10;9;
77892;PMS5003;67087;50.094;14.338;2023-08-12T10:58:41;9;9;
77892;PMS5003;67087;50.094;14.338;2023-08-12T11:01:01;9;9;
77892;PMS5003;67087;50.094;14.338;2023-08-12T11:03:27;8;8;
77892;PMS5003;67087;50.094;14.338;2023-08-12T11:05:51;9;9;
77892;PMS5003;67087;50.094;14.338;2023-08-12T11:08:16;10;10;
77892;PMS5003;67087;50.094;14.338;2023-08-12T11:10:41;8;8;
77892;PMS5003;67087;50.094;14.338;2023-08-12T11:13:08;10;9;
77892;PMS5003;67087;50.094;14.338;2023-08-12T11:15:32;8;8;
77892;PMS5003;67087;50.094;14.338;2023-08-12T11:17:57;9;8;
77892;PMS5003;67087;50.094;14.338;2023-08-12T11:20:22;7;7;
77892;PMS5003;67087;50.094;14.338;2023-08-12T11:22:47;9;9;
77892;PMS5003;67087;50.094;14.338;2023-08-12T11:25:12;8;8;
77892;PMS5003;67087;50.094;14.338;2023-08-12T11:27:38;9;9;
77892;PMS5003;67087;50.094;14.338;2023-08-12T11:30:03;7;7;
77892;PMS5003;67087;50.094;14.338;2023-08-12T11:32:27;8;8;
77892;PMS5003;67087;50.094;14.338;2023-08-12T11:34:52;6;6;
77892;PMS5003;67087;50.094;14.338;2023-08-12T11:37:18;9;8;
77892;PMS5003;67087;50.094;14.338;2023-08-12T11:39:43;8;8;
77892;PMS5003;67087;50.094;14.338;2023-08-12T11:42:08;7;7;
77892;PMS5003;67087;50.094;14.338;2023-08-12T11:44:33;8;8;
77892;PMS5003;67087;50.094;14.338;2023-08-12T11:46:58;8;7;
77892;PMS5003;67087;50.094;14.338;2023-08-12T11:49:23;6;6;
77892;PMS5003;67087;50.094;14.338;2023-08-12T11:51:48;7;7;
77892;PMS5003;67087;50.094;14.338;2023-08-12T11:54:14;7;6;
77892;PMS5003;67087;50.094;14.338;2023-08-12T11:56:39;8;7;
77892;PMS5003;67087;50.094;14.338;2023-08-12T11:59:04;5;5;
77892;PMS5003;67087;50.094;14.338;2023-08-12T12:01:29;7;7;
77892;PMS5003;67087;50.094;14.338;2023-08-12T12:03:54;7;6;
77892;PMS5003;67087;50.094;14.338;2023-08-12T12:08:44;6;6;
77892;PMS5003;67087;50.094;14.338;2023-08-12T12:11:09;6;6;
77892;PMS5003;67087;50.094;14.338;2023-08-12T12:13:34;4;4;
77892;PMS5003;67087;50.094;14.338;2023-08-12T12:15:59;5;5;
77892;PMS5003;67087;50.094;14.338;2023-08-12T12:18:24;6;6;
77892;PMS5003;67087;50.094;14.338;2023-08-12T12:20:55;7;7;
77892;PMS5003;67087;50.094;14.338;2023-08-12T12:23:15;5;5;
77892;PMS5003;67087;50.094;14.338;2023-08-12T12:25:40;6;6;
77892;PMS5003;67087;50.094;14.338;2023-08-12T12:28:04;8;7;
77892;PMS5003;67087;50.094;14.338;2023-08-12T12:30:29;6;6;
77892;PMS5003;67087;50.094;14.338;2023-08-12T12:32:54;7;7;
77892;PMS5003;67087;50.094;14.338;2023-08-12T12:35:19;6;6;
77892;PMS5003;67087;50.094;14.338;2023-08-12T12:37:44;6;6;
77892;PMS5003;67087;50.094;14.338;2023-08-12T12:40:10;5;5;
77892;PMS5003;67087;50.094;14.338;2023-08-12T12:42:35;6;6;
77892;PMS5003;67087;50.094;14.338;2023-08-12T12:45:00;6;6;
77892;PMS5003;67087;50.094;14.338;2023-08-12T12:47:25;7;7;
77892;PMS5003;67087;50.094;14.338;2023-08-12T12:49:50;5;5;
77892;PMS5003;67087;50.094;14.338;2023-08-12T12:52:15;7;7;
77892;PMS5003;67087;50.094;14.338;2023-08-12T12:54:40;6;6;
77892;PMS5003;67087;50.094;14.338;2023-08-12T12:57:05;8;7;
77892;PMS5003;67087;50.094;14.338;2023-08-12T12:59:30;6;5;
77892;PMS5003;67087;50.094;14.338;2023-08-12T13:01:55;6;6;
77892;PMS5003;67087;50.094;14.338;2023-08-12T13:04:20;6;6;
77892;PMS5003;67087;50.094;14.338;2023-08-12T13:06:45;4;4;
77892;PMS5003;67087;50.094;14.338;2023-08-12T13:09:10;5;5;
77892;PMS5003;67087;50.094;14.338;2023-08-12T13:11:35;6;6;
77892;PMS5003;67087;50.094;14.338;2023-08-12T13:14:00;4;4;
77892;PMS5003;67087;50.094;14.338;2023-08-12T13:16:25;6;6;
77892;PMS5003;67087;50.094;14.338;2023-08-12T13:18:50;4;4;
77892;PMS5003;67087;50.094;14.338;2023-08-12T13:21:15;5;5;
77892;PMS5003;67087;50.094;14.338;2023-08-12T13:23:40;5;5;
77892;PMS5003;67087;50.094;14.338;2023-08-12T13:26:05;5;5;
77892;PMS5003;67087;50.094;14.338;2023-08-12T13:28:30;5;5;
77892;PMS5003;67087;50.094;14.338;2023-08-12T13:30:56;6;6;
77892;PMS5003;67087;50.094;14.338;2023-08-12T13:33:21;5;5;
77892;PMS5003;67087;50.094;14.338;2023-08-12T13:35:46;5;5;
77892;PMS5003;67087;50.094;14.338;2023-08-12T13:38:11;6;6;
77892;PMS5003;67087;50.094;14.338;2023-08-12T13:40:36;5;5;
77892;PMS5003;67087;50.094;14.338;2023-08-12T13:43:01;5;5;
77892;PMS5003;67087;50.094;14.338;2023-08-12T13:45:26;4;4;
77892;PMS5003;67087;50.094;14.338;2023-08-12T13:47:51;5;5;
77892;PMS5003;67087;50.094;14.338;2023-08-12T13:50:17;3;3;
77892;PMS5003;67087;50.094;14.338;2023-08-12T13:52:42;5;5;
77892;PMS5003;67087;50.094;14.338;2023-08-12T13:55:07;5;5;
77892;PMS5003;67087;50.094;14.338;2023-08-12T13:57:32;4;4;
77892;PMS5003;67087;50.094;14.338;2023-08-12T13:59:57;4;4;
77892;PMS5003;67087;50.094;14.338;2023-08-12T14:02:22;4;4;
77892;PMS5003;67087;50.094;14.338;2023-08-12T14:04:47;5;5;
77892;PMS5003;67087;50.094;14.338;2023-08-12T14:07:12;4;4;
77892;PMS5003;67087;50.094;14.338;2023-08-12T14:09:37;4;4;
77892;PMS5003;67087;50.094;14.338;2023-08-12T14:12:02;4;4;
77892;PMS5003;67087;50.094;14.338;2023-08-12T14:14:27;3;3;
77892;PMS5003;67087;50.094;14.338;2023-08-12T14:16:52;4;4;
77892;PMS5003;67087;50.094;14.338;2023-08-12T14:19:17;3;3;
77892;PMS5003;67087;50.094;14.338;2023-08-12T14:21:42;3;3;
77892;PMS5003;67087;50.094;14.338;2023-08-12T14:24:07;4;4;
77892;PMS5003;67087;50.094;14.338;2023-08-12T14:26:32;4;4;
77892;PMS5003;67087;50.094;14.338;2023-08-12T14:28:57;4;4;
77892;PMS5003;67087;50.094;14.338;2023-08-12T14:31:22;3;3;
77892;PMS5003;67087;50.094;14.338;2023-08-12T14:33:47;4;4;
77892;PMS5003;67087;50.094;14.338;2023-08-12T14:36:12;4;4;
77892;PMS5003;67087;50.094;14.338;2023-08-12T14:38:37;3;3;
77892;PMS5003;67087;50.094;14.338;2023-08-12T14:41:02;3;3;
77892;PMS5003;67087;50.094;14.338;2023-08-12T14:43:27;4;4;
77892;PMS5003;67087;50.094;14.338;2023-08-12T14:45:52;5;5;
77892;PMS5003;67087;50.094;14.338;2023-08-12T14:48:17;4;4;
77892;PMS5003;67087;50.094;14.338;2023-08-12T14:50:42;4;4;
77892;PMS5003;67087;50.094;14.338;2023-08-12T14:53:07;5;5;
77892;PMS5003;67087;50.094;14.338;2023-08-12T14:55:32;2;2;
77892;PMS5003;67087;50.094;14.338;2023-08-12T14:57:57;5;5;
77892;PMS5003;67087;50.094;14.338;2023-08-12T15:00:22;4;4;
77892;PMS5003;67087;50.094;14.338;2023-08-12T15:02:48;4;4;
77892;PMS5003;67087;50.094;14.338;2023-08-12T15:05:12;5;4;
77892;PMS5003;67087;50.094;14.338;2023-08-12T15:07:37;4;4;
77892;PMS5003;67087;50.094;14.338;2023-08-12T15:10:03;4;3;
77892;PMS5003;67087;50.094;14.338;2023-08-12T15:12:28;4;4;
77892;PMS5003;67087;50.094;14.338;2023-08-12T15:14:53;3;3;
77892;PMS5003;67087;50.094;14.338;2023-08-12T15:17:18;3;3;
77892;PMS5003;67087;50.094;14.338;2023-08-12T15:19:43;4;4;
77892;PMS5003;67087;50.094;14.338;2023-08-12T15:22:08;4;4;
77892;PMS5003;67087;50.094;14.338;2023-08-12T15:24:33;4;4;
77892;PMS5003;67087;50.094;14.338;2023-08-12T15:26:58;5;5;
77892;PMS5003;67087;50.094;14.338;2023-08-12T15:29:23;5;5;
77892;PMS5003;67087;50.094;14.338;2023-08-12T15:31:48;5;5;
77892;PMS5003;67087;50.094;14.338;2023-08-12T15:34:13;5;5;
77892;PMS5003;67087;50.094;14.338;2023-08-12T15:36:38;6;5;
77892;PMS5003;67087;50.094;14.338;2023-08-12T15:39:03;5;5;
77892;PMS5003;67087;50.094;14.338;2023-08-12T15:41:28;8;7;
77892;PMS5003;67087;50.094;14.338;2023-08-12T15:43:53;6;6;
77892;PMS5003;67087;50.094;14.338;2023-08-12T15:46:18;6;6;
77892;PMS5003;67087;50.094;14.338;2023-08-12T15:48:43;6;6;
77892;PMS5003;67087;50.094;14.338;2023-08-12T15:51:08;4;4;
77892;PMS5003;67087;50.094;14.338;2023-08-12T15:53:33;4;4;
77892;PMS5003;67087;50.094;14.338;2023-08-12T15:55:58;6;6;
77892;PMS5003;67087;50.094;14.338;2023-08-12T15:58:23;7;7;
77892;PMS5003;67087;50.094;14.338;2023-08-12T16:00:48;8;8;
77892;PMS5003;67087;50.094;14.338;2023-08-12T16:03:13;6;6;
77892;PMS5003;67087;50.094;14.338;2023-08-12T16:05:38;6;6;
77892;PMS5003;67087;50.094;14.338;2023-08-12T16:08:04;7;7;
77892;PMS5003;67087;50.094;14.338;2023-08-12T16:10:29;6;6;
77892;PMS5003;67087;50.094;14.338;2023-08-12T16:12:54;8;7;
77892;PMS5003;67087;50.094;14.338;2023-08-12T16:15:19;5;5;
77892;PMS5003;67087;50.094;14.338;2023-08-12T16:17:44;6;6;